createdAt,value
2023-04-03T00:00:34.250Z,4.93
2023-04-03T00:03:01.297Z,4.99
2023-04-03T00:05:28.020Z,4.97
2023-04-03T00:07:54.656Z,4.86
2023-04-03T00:10:21.352Z,5.04
2023-04-03T00:12:47.969Z,4.87
2023-04-03T00:15:15.217Z,4.90
2023-04-03T00:17:42.124Z,4.86
2023-04-03T00:20:09.470Z,4.99
2023-04-03T00:22:36.223Z,5.02
2023-04-03T00:25:03.207Z,5.06
2023-04-03T00:27:29.909Z,5.23
2023-04-03T00:29:56.534Z,5.15
2023-04-03T00:32:23.208Z,5.11
2023-04-03T00:34:49.826Z,5.22
2023-04-03T00:37:16.480Z,5.17
2023-04-03T00:39:43.108Z,5.15
2023-04-03T00:42:09.800Z,5.38
2023-04-03T00:44:36.375Z,4.88
2023-04-03T00:47:06.643Z,5.00
2023-04-03T00:49:33.465Z,4.64
2023-04-03T00:52:00.896Z,4.80
2023-04-03T00:54:27.780Z,4.88
2023-04-03T00:56:57.147Z,4.59
2023-04-03T00:59:32.468Z,4.57
2023-04-03T01:01:59.655Z,4.25
2023-04-03T01:04:41.265Z,4.51
2023-04-03T01:07:16.922Z,4.67
2023-04-03T01:09:44.192Z,4.60
2023-04-03T01:12:20.845Z,4.73
2023-04-03T01:14:50.491Z,4.52
2023-04-03T01:17:34.658Z,4.49
2023-04-03T01:20:25.415Z,4.62
2023-04-03T01:23:12.642Z,4.65
2023-04-03T01:25:49.743Z,4.52
2023-04-03T01:28:39.301Z,4.49
2023-04-03T01:31:25.729Z,4.57
2023-04-03T01:33:52.902Z,4.67
2023-04-03T01:36:25.911Z,4.50
2023-04-03T01:38:54.315Z,4.45
2023-04-03T01:41:21.160Z,4.43
2023-04-03T01:43:49.117Z,4.51
2023-04-03T01:46:17.378Z,4.60
2023-04-03T01:48:44.159Z,4.48
2023-04-03T01:51:10.918Z,4.50
2023-04-03T01:53:37.632Z,4.56
2023-04-03T01:56:04.781Z,4.72
2023-04-03T01:58:31.528Z,4.44
2023-04-03T02:00:58.239Z,4.49
2023-04-03T02:03:24.916Z,4.43
2023-04-03T02:05:51.664Z,4.25
2023-04-03T02:08:18.480Z,4.52
2023-04-03T02:10:47.774Z,4.24
2023-04-03T02:13:14.369Z,4.45
2023-04-03T02:15:41.650Z,4.15
2023-04-03T02:18:09.232Z,4.26
2023-04-03T02:20:36.092Z,4.29
2023-04-03T02:23:03.734Z,4.37
2023-04-03T02:25:32.534Z,4.28
2023-04-03T02:27:59.476Z,4.43
2023-04-03T02:30:26.700Z,4.22
2023-04-03T02:32:53.593Z,4.23
2023-04-03T02:35:20.459Z,4.22
2023-04-03T02:37:47.159Z,4.17
2023-04-03T02:40:13.815Z,3.95
2023-04-03T02:42:40.659Z,3.81
2023-04-03T02:45:07.847Z,3.93
2023-04-03T02:47:34.470Z,3.80
2023-04-03T02:50:01.106Z,4.12
2023-04-03T02:52:27.771Z,4.25
2023-04-03T02:54:54.462Z,4.25
2023-04-03T02:57:21.281Z,4.19
2023-04-03T02:59:48.093Z,3.96
2023-04-03T03:02:14.734Z,3.90
2023-04-03T03:04:41.374Z,4.09
2023-04-03T03:07:08.044Z,4.10
2023-04-03T03:09:34.663Z,4.25
2023-04-03T03:12:01.407Z,4.36
2023-04-03T03:14:28.081Z,4.42
2023-04-03T03:16:54.830Z,3.76
2023-04-03T03:19:21.423Z,3.64
2023-04-03T03:21:48.128Z,3.44
2023-04-03T03:24:14.750Z,3.69
2023-04-03T03:26:41.486Z,3.90
2023-04-03T03:29:08.208Z,3.87
2023-04-03T03:31:34.879Z,3.64
2023-04-03T03:34:01.519Z,3.49
2023-04-03T03:36:28.137Z,3.58
2023-04-03T03:38:54.779Z,3.62
2023-04-03T03:41:21.530Z,3.34
2023-04-03T03:43:48.186Z,3.62
2023-04-03T03:46:14.874Z,3.64
2023-04-03T03:48:41.530Z,3.69
2023-04-03T03:51:08.225Z,3.56
2023-04-03T03:53:34.860Z,3.70
2023-04-03T03:56:01.565Z,3.95
2023-04-03T03:58:28.239Z,3.79
2023-04-03T04:00:54.850Z,3.56
2023-04-03T04:03:21.665Z,3.68
2023-04-03T04:05:48.416Z,3.68
2023-04-03T04:08:15.018Z,3.21
2023-04-03T04:10:41.781Z,3.57
2023-04-03T04:13:08.431Z,3.50
2023-04-03T04:15:35.608Z,3.43
2023-04-03T04:18:02.639Z,3.22
2023-04-03T04:20:29.263Z,2.98
2023-04-03T04:22:55.871Z,2.99
2023-04-03T04:25:22.528Z,3.07
2023-04-03T04:27:49.199Z,3.05
2023-04-03T04:30:16.205Z,3.07
2023-04-03T04:32:42.904Z,3.18
2023-04-03T04:35:09.913Z,3.06
2023-04-03T04:37:36.585Z,3.16
2023-04-03T04:40:03.245Z,2.95
2023-04-03T04:42:29.953Z,2.88
2023-04-03T04:44:56.547Z,2.76
2023-04-03T04:47:23.290Z,2.94
2023-04-03T04:49:49.908Z,2.87
2023-04-03T04:52:16.904Z,2.87
2023-04-03T04:54:43.659Z,2.97
2023-04-03T04:57:10.509Z,2.75
2023-04-03T04:59:37.170Z,2.66
2023-04-03T05:02:04.133Z,2.79
2023-04-03T05:04:31.011Z,2.89
2023-04-03T05:06:57.679Z,2.47
2023-04-03T05:09:24.285Z,2.59
2023-04-03T05:11:51.012Z,2.75
2023-04-03T05:14:17.839Z,3.00
2023-04-03T05:16:44.462Z,3.01
2023-04-03T05:19:11.078Z,2.67
2023-04-03T05:21:37.895Z,2.64
2023-04-03T05:24:05.111Z,2.67
2023-04-03T05:26:32.803Z,2.60
2023-04-03T05:28:59.422Z,2.71
2023-04-03T05:31:26.100Z,2.67
2023-04-03T05:33:53.079Z,2.86
2023-04-03T05:36:20.356Z,2.74
2023-04-03T05:38:47.427Z,2.70
2023-04-03T05:41:15.096Z,2.88
2023-04-03T05:43:42.115Z,3.01
2023-04-03T05:46:13.686Z,3.01
2023-04-03T05:48:40.358Z,3.11
2023-04-03T05:51:08.747Z,3.16
2023-04-03T05:53:37.335Z,3.43
2023-04-03T05:56:04.592Z,3.24
2023-04-03T05:58:31.757Z,3.38
2023-04-03T06:00:58.440Z,3.66
2023-04-03T06:03:25.783Z,3.24
2023-04-03T06:05:52.858Z,3.37
2023-04-03T06:08:19.442Z,3.44
2023-04-03T06:10:46.077Z,3.87
2023-04-03T06:13:12.729Z,3.70
2023-04-03T06:15:39.428Z,3.50
2023-04-03T06:18:06.202Z,3.62
2023-04-03T06:20:32.857Z,3.62
2023-04-03T06:22:59.851Z,3.63
2023-04-03T06:25:26.568Z,3.76
2023-04-03T06:27:53.227Z,3.65
2023-04-03T06:30:19.894Z,3.96
2023-04-03T06:32:46.555Z,3.86
2023-04-03T06:35:13.620Z,3.64
2023-04-03T06:37:40.239Z,3.88
2023-04-03T06:40:07.618Z,4.08
2023-04-03T06:42:34.230Z,4.33
2023-04-03T06:45:00.832Z,4.49
2023-04-03T06:47:27.645Z,4.64
2023-04-03T06:49:54.268Z,4.50
2023-04-03T06:52:20.922Z,4.58
2023-04-03T06:54:47.686Z,4.27
2023-04-03T06:57:14.359Z,4.47
2023-04-03T06:59:41.054Z,4.30
2023-04-03T07:02:07.818Z,4.49
2023-04-03T07:04:34.568Z,4.61
2023-04-03T07:07:01.298Z,4.61
2023-04-03T07:09:27.893Z,4.82
2023-04-03T07:11:54.502Z,5.04
2023-04-03T07:14:21.218Z,4.96
2023-04-03T07:16:48.189Z,4.79
2023-04-03T07:19:14.832Z,4.79
2023-04-03T07:21:41.657Z,4.88
2023-04-03T07:24:11.328Z,4.99
2023-04-03T07:26:41.570Z,5.16
2023-04-03T07:29:08.282Z,5.15
2023-04-03T07:31:34.970Z,5.34
2023-04-03T07:34:01.637Z,5.22
2023-04-03T07:36:28.247Z,5.30
2023-04-03T07:38:54.931Z,5.35
2023-04-03T07:41:21.539Z,5.44
2023-04-03T07:43:48.128Z,5.62
2023-04-03T07:46:14.862Z,5.50
2023-04-03T07:48:41.498Z,5.62
2023-04-03T07:51:08.156Z,5.56
2023-04-03T07:53:35.113Z,5.65
2023-04-03T07:56:01.770Z,5.82
2023-04-03T07:58:28.408Z,5.98
2023-04-03T08:00:55.036Z,5.98
2023-04-03T08:03:22.019Z,6.11
2023-04-03T08:05:50.876Z,6.32
2023-04-03T08:08:21.626Z,6.17
2023-04-03T08:10:55.338Z,6.01
2023-04-03T08:13:22.998Z,6.11
2023-04-03T08:15:50.157Z,5.99
2023-04-03T08:18:19.663Z,5.95
2023-04-03T08:20:46.275Z,5.98
2023-04-03T08:23:12.844Z,6.22
2023-04-03T08:25:41.195Z,6.56
2023-04-03T08:28:08.955Z,6.64
2023-04-03T08:30:35.865Z,6.66
2023-04-03T08:33:04.222Z,6.84
2023-04-03T08:35:30.982Z,6.52
2023-04-03T08:37:57.781Z,6.16
2023-04-03T08:40:25.306Z,6.34
2023-04-03T08:42:57.851Z,6.34
2023-04-03T08:45:47.224Z,6.17
2023-04-03T08:48:18.231Z,6.47
2023-04-03T08:50:49.021Z,6.20
2023-04-03T08:53:22.881Z,6.59
2023-04-03T08:55:54.278Z,7.06
2023-04-03T08:58:29.495Z,6.77
2023-04-03T09:01:05.712Z,6.85
2023-04-03T09:03:37.778Z,7.27
2023-04-03T09:06:26.879Z,6.84
2023-04-03T09:08:56.207Z,6.67
2023-04-03T09:11:48.431Z,6.83
2023-04-03T09:14:24.510Z,7.43
2023-04-03T09:16:57.611Z,7.12
2023-04-03T09:19:33.387Z,6.92
2023-04-03T09:22:22.545Z,7.25
2023-04-03T09:25:20.222Z,7.68
2023-04-03T09:27:47.046Z,7.56
2023-04-03T09:30:16.767Z,7.59
2023-04-03T09:32:48.753Z,7.46
2023-04-03T09:35:44.148Z,7.09
2023-04-03T09:38:13.675Z,7.31
2023-04-03T09:40:44.780Z,7.23
2023-04-03T09:43:23.592Z,6.93
2023-04-03T09:45:51.449Z,7.13
2023-04-03T09:48:24.491Z,7.62
2023-04-03T09:50:51.284Z,7.84
2023-04-03T09:53:29.361Z,7.88
2023-04-03T09:55:56.317Z,7.98
2023-04-03T09:58:46.702Z,8.05
2023-04-03T10:01:29.211Z,8.56
2023-04-03T10:04:15.411Z,8.58
2023-04-03T10:06:47.469Z,8.09
2023-04-03T10:09:19.621Z,8.26
2023-04-03T10:12:08.584Z,8.24
2023-04-03T10:14:37.375Z,8.20
2023-04-03T10:17:17.094Z,7.59
2023-04-03T10:20:19.173Z,7.85
2023-04-03T10:22:57.597Z,8.12
2023-04-03T10:25:42.603Z,8.70
2023-04-03T10:28:33.891Z,8.66
2023-04-03T10:31:12.593Z,9.23
2023-04-03T10:33:57.294Z,9.31
2023-04-03T10:37:02.650Z,8.78
2023-04-03T10:39:55.363Z,8.05
2023-04-03T10:43:09.555Z,8.22
2023-04-03T10:45:50.984Z,8.39
2023-04-03T10:48:40.426Z,8.14
2023-04-03T10:51:14.040Z,8.00
2023-04-03T10:53:55.831Z,7.98
2023-04-03T10:56:32.121Z,7.76
2023-04-03T10:59:24.961Z,7.65
2023-04-03T11:02:01.751Z,8.06
2023-04-03T11:04:32.534Z,7.97
2023-04-03T11:07:27.229Z,8.53
2023-04-03T11:10:01.899Z,8.75
2023-04-03T11:12:39.658Z,8.87
2023-04-03T11:15:07.268Z,8.57
2023-04-03T11:17:42.487Z,9.21
2023-04-03T11:20:35.678Z,8.75
2023-04-03T11:23:23.386Z,8.81
2023-04-03T11:25:54.421Z,9.26
2023-04-03T11:28:21.114Z,9.20
2023-04-03T11:31:12.891Z,8.84
2023-04-03T11:34:07.142Z,9.36
2023-04-03T11:36:44.586Z,8.98
2023-04-03T11:39:20.874Z,9.21
2023-04-03T11:41:48.678Z,9.52
2023-04-03T11:44:30.566Z,9.12
2023-04-03T11:46:59.279Z,9.18
2023-04-03T11:49:54.198Z,9.50
2023-04-03T11:52:43.810Z,9.13
2023-04-03T11:55:21.524Z,8.69
2023-04-03T11:58:31.532Z,8.95
2023-04-03T12:01:02.997Z,8.38
2023-04-03T12:03:29.642Z,8.17
2023-04-03T12:06:05.528Z,8.58
2023-04-03T12:08:41.144Z,9.05
2023-04-03T12:11:13.933Z,8.69
2023-04-03T12:13:49.744Z,8.87
2023-04-03T12:16:26.143Z,9.00
2023-04-03T12:18:52.780Z,8.88
2023-04-03T12:21:25.477Z,8.66
2023-04-03T12:24:10.334Z,8.73
2023-04-03T12:26:52.265Z,8.73
2023-04-03T12:29:21.924Z,8.89
2023-04-03T12:32:14.896Z,8.67
2023-04-03T12:34:53.420Z,8.93
2023-04-03T12:37:32.144Z,8.77
2023-04-03T12:40:11.958Z,9.14
2023-04-03T12:42:52.373Z,8.85
2023-04-03T12:45:24.805Z,8.40
2023-04-03T12:47:54.750Z,8.23
2023-04-03T12:50:34.956Z,8.35
2023-04-03T12:53:13.165Z,8.13
2023-04-03T12:55:40.127Z,8.59
2023-04-03T12:58:29.488Z,8.63
2023-04-03T13:01:04.820Z,8.35
2023-04-03T13:03:34.770Z,8.42
2023-04-03T13:06:03.539Z,8.66
2023-04-03T13:08:30.764Z,8.47
2023-04-03T13:10:57.312Z,8.28
2023-04-03T13:13:24.347Z,8.43
2023-04-03T13:15:51.315Z,8.55
2023-04-03T13:18:30.015Z,8.42
2023-04-03T13:21:07.395Z,8.37
2023-04-03T13:23:37.726Z,8.56
2023-04-03T13:26:05.762Z,8.93
2023-04-03T13:28:34.077Z,8.89
2023-04-03T13:31:06.567Z,8.85
2023-04-03T13:33:36.336Z,8.57
2023-04-03T13:36:18.978Z,8.94
2023-04-03T13:38:45.650Z,9.17
2023-04-03T13:41:36.316Z,9.33
2023-04-03T13:44:22.986Z,9.46
2023-04-03T13:46:59.798Z,9.18
2023-04-03T13:49:29.715Z,9.60
2023-04-03T13:52:06.428Z,9.34
2023-04-03T13:54:40.009Z,9.36
2023-04-03T13:57:16.947Z,9.30
2023-04-03T13:59:46.696Z,9.70
2023-04-03T14:02:13.280Z,9.51
2023-04-03T14:04:46.034Z,9.86
2023-04-03T14:07:13.952Z,9.89
2023-04-03T14:09:41.178Z,9.81
2023-04-03T14:12:24.245Z,9.57
2023-04-03T14:14:57.307Z,9.34
2023-04-03T14:17:25.937Z,9.63
2023-04-03T14:19:54.118Z,9.79
2023-04-03T14:22:27.337Z,9.65
2023-04-03T14:24:54.322Z,9.51
2023-04-03T14:27:24.688Z,9.84
2023-04-03T14:29:53.472Z,10.13
2023-04-03T14:32:22.697Z,10.19
2023-04-03T14:34:50.909Z,9.44
2023-04-03T14:37:21.345Z,9.24
2023-04-03T14:39:48.520Z,9.62
2023-04-03T14:42:20.370Z,9.43
2023-04-03T14:44:47.169Z,9.06
2023-04-03T14:47:30.002Z,9.21
2023-04-03T14:50:00.610Z,9.39
2023-04-03T14:52:34.373Z,9.80
2023-04-03T14:55:02.449Z,9.63
2023-04-03T14:57:30.326Z,9.07
2023-04-03T14:59:57.141Z,9.37
2023-04-03T15:02:26.312Z,9.27
2023-04-03T15:04:54.016Z,9.49
2023-04-03T15:07:21.577Z,9.25
2023-04-03T15:09:48.425Z,9.32
2023-04-03T15:14:51.760Z,9.83
2023-04-03T15:17:24.387Z,9.34
2023-04-03T15:19:51.124Z,9.02
2023-04-03T15:22:19.938Z,8.89
2023-04-03T15:24:47.078Z,8.77
2023-04-03T15:27:14.860Z,9.12
2023-04-03T15:29:43.910Z,9.10
2023-04-03T15:32:11.008Z,9.56
2023-04-03T15:34:38.671Z,9.86
2023-04-03T15:37:05.667Z,9.29
2023-04-03T15:39:32.605Z,8.95
2023-04-03T15:41:59.518Z,9.22
2023-04-03T15:44:26.322Z,9.14
2023-04-03T15:46:53.112Z,9.59
2023-04-03T15:49:22.703Z,9.26
2023-04-03T15:51:49.454Z,9.03
2023-04-03T15:54:16.823Z,9.43
2023-04-03T15:56:43.680Z,9.48
2023-04-03T15:59:10.458Z,9.05
2023-04-03T16:01:39.168Z,9.01
2023-04-03T16:04:09.034Z,9.22
2023-04-03T16:06:36.238Z,9.51
2023-04-03T16:09:02.992Z,9.46
2023-04-03T16:11:29.938Z,8.96
2023-04-03T16:13:57.479Z,8.47
2023-04-03T16:16:25.840Z,8.66
2023-04-03T16:18:52.481Z,8.39
2023-04-03T16:21:19.127Z,7.78
2023-04-03T16:23:46.230Z,7.99
2023-04-03T16:26:13.536Z,8.33
2023-04-03T16:28:40.482Z,8.11
2023-04-03T16:31:08.470Z,7.92
2023-04-03T16:33:35.446Z,7.95
2023-04-03T16:36:02.351Z,8.02
2023-04-03T16:38:29.004Z,7.78
2023-04-03T16:40:55.673Z,7.94
2023-04-03T16:43:22.295Z,7.94
2023-04-03T16:45:48.902Z,7.90
2023-04-03T16:48:15.737Z,7.86
2023-04-03T16:50:42.457Z,7.58
2023-04-03T16:53:09.102Z,7.80
2023-04-03T16:55:36.466Z,7.71
2023-04-03T16:58:03.151Z,7.65
2023-04-03T17:00:33.520Z,7.93
2023-04-03T17:03:00.523Z,7.96
2023-04-03T17:05:27.230Z,7.68
2023-04-03T17:07:53.865Z,7.58
2023-04-03T17:10:20.583Z,7.45
2023-04-03T17:12:47.271Z,7.48
2023-04-03T17:15:14.085Z,7.62
2023-04-03T17:17:40.950Z,7.41
2023-04-03T17:20:08.369Z,7.63
2023-04-03T17:22:35.094Z,7.66
2023-04-03T17:25:01.796Z,7.72
2023-04-03T17:27:28.626Z,7.69
2023-04-03T17:29:55.271Z,7.36
2023-04-03T17:32:21.971Z,7.32
2023-04-03T17:34:48.811Z,7.31
2023-04-03T17:37:15.548Z,7.35
2023-04-03T17:39:42.153Z,7.08
2023-04-03T17:42:08.901Z,7.18
2023-04-03T17:44:35.553Z,6.66
2023-04-03T17:47:02.314Z,6.50
2023-04-03T17:49:29.032Z,6.12
2023-04-03T17:51:55.693Z,6.18
2023-04-03T17:54:22.336Z,6.20
2023-04-03T17:56:48.975Z,6.11
2023-04-03T17:59:16.765Z,6.14
2023-04-03T18:01:45.186Z,6.46
2023-04-03T18:04:12.156Z,6.25
2023-04-03T18:06:43.641Z,6.19
2023-04-03T18:09:19.919Z,5.75
2023-04-03T18:11:48.536Z,5.39
2023-04-03T18:14:26.738Z,5.59
2023-04-03T18:16:53.419Z,6.07
2023-04-03T18:19:23.329Z,5.98
2023-04-03T18:21:51.935Z,5.84
2023-04-03T18:24:20.837Z,6.18
2023-04-03T18:26:51.803Z,6.33
2023-04-03T18:29:20.436Z,6.57
2023-04-03T18:31:51.663Z,6.47
2023-04-03T18:34:18.304Z,6.21
2023-04-03T18:36:44.971Z,6.00
2023-04-03T18:39:11.648Z,6.29
2023-04-03T18:41:38.493Z,6.04
2023-04-03T18:44:08.409Z,6.19
2023-04-03T18:46:35.174Z,5.76
2023-04-03T18:49:02.563Z,6.22
2023-04-03T18:51:29.563Z,6.20
2023-04-03T18:53:56.206Z,6.31
2023-04-03T18:56:22.854Z,6.24
2023-04-03T18:58:49.538Z,6.28
2023-04-03T19:01:16.715Z,6.25
2023-04-03T19:03:43.902Z,6.19
2023-04-03T19:06:10.789Z,6.17
2023-04-03T19:08:37.776Z,6.26
2023-04-03T19:11:04.633Z,6.27
2023-04-03T19:13:31.426Z,6.07
2023-04-03T19:15:58.089Z,6.01
2023-04-03T19:18:26.276Z,5.97
2023-04-03T19:20:55.846Z,5.79
2023-04-03T19:23:23.845Z,5.66
2023-04-03T19:25:59.283Z,5.64
2023-04-03T19:28:25.944Z,5.57
2023-04-03T19:30:52.655Z,5.62
2023-04-03T19:33:22.374Z,5.71
2023-04-03T19:35:49.063Z,5.35
2023-04-03T19:38:15.722Z,5.28
2023-04-03T19:40:43.428Z,5.71
2023-04-03T19:43:14.262Z,5.36
2023-04-03T19:45:41.822Z,4.72
2023-04-03T19:48:08.651Z,4.73
2023-04-03T19:50:35.640Z,4.37
2023-04-03T19:53:02.472Z,4.41
2023-04-03T19:55:29.369Z,4.39
2023-04-03T19:57:56.107Z,4.29
2023-04-03T20:00:22.760Z,4.20
2023-04-03T20:02:49.411Z,3.85
2023-04-03T20:05:16.149Z,3.65
2023-04-03T20:07:42.763Z,3.57
2023-04-03T20:10:10.030Z,3.58
2023-04-03T20:12:36.649Z,3.64
2023-04-03T20:15:03.701Z,3.26
2023-04-03T20:17:30.641Z,3.28
2023-04-03T20:19:57.346Z,3.19
2023-04-03T20:22:24.041Z,3.33
2023-04-03T20:24:50.628Z,3.49
2023-04-03T20:27:17.261Z,3.45
2023-04-03T20:29:44.021Z,3.13
2023-04-03T20:32:10.680Z,3.17
2023-04-03T20:34:37.988Z,3.23
2023-04-03T20:37:04.678Z,3.38
2023-04-03T20:39:31.690Z,3.14
2023-04-03T20:41:59.927Z,3.07
2023-04-03T20:44:26.544Z,3.22
2023-04-03T20:46:54.061Z,3.10
2023-04-03T20:49:22.142Z,3.21
2023-04-03T20:51:49.012Z,3.14
2023-04-03T20:54:15.649Z,2.70
2023-04-03T20:56:42.327Z,2.68
2023-04-03T20:59:09.032Z,2.55
2023-04-03T21:01:35.800Z,2.53
2023-04-03T21:04:12.549Z,2.48
2023-04-03T21:07:16.648Z,2.32
2023-04-03T21:10:20.582Z,2.21
2023-04-03T21:13:24.583Z,2.40
2023-04-03T21:15:51.083Z,2.45
2023-04-03T21:18:48.437Z,2.59
2023-04-03T21:21:33.634Z,2.11
2023-04-03T21:24:01.595Z,2.26
2023-04-03T21:26:28.429Z,2.28
2023-04-03T21:28:55.346Z,2.34
2023-04-03T21:31:22.675Z,2.19
2023-04-03T21:33:50.235Z,2.10
2023-04-03T21:36:16.889Z,2.43
2023-04-03T21:38:43.481Z,2.21
2023-04-03T21:41:10.177Z,2.26
2023-04-03T21:43:36.792Z,2.27
2023-04-03T21:46:03.427Z,2.30
2023-04-03T21:48:30.193Z,2.34
2023-04-03T21:51:06.368Z,2.51
2023-04-03T21:53:33.131Z,2.33
2023-04-03T21:56:00.236Z,2.57
2023-04-03T21:58:33.309Z,2.54
2023-04-03T22:01:14.165Z,2.46
2023-04-03T22:03:42.539Z,2.86
2023-04-03T22:06:10.544Z,2.42
2023-04-03T22:08:37.725Z,2.13
2023-04-03T22:11:06.222Z,2.36
2023-04-03T22:13:33.319Z,2.27
2023-04-03T22:16:00.342Z,2.16
2023-04-03T22:18:27.345Z,2.30
2023-04-03T22:20:54.967Z,2.34
2023-04-03T22:23:22.398Z,2.12
2023-04-03T22:26:06.025Z,2.32
2023-04-03T22:28:34.905Z,2.20
2023-04-03T22:31:02.339Z,2.23
2023-04-03T22:33:29.152Z,2.26
2023-04-03T22:35:55.795Z,1.99
2023-04-03T22:38:22.503Z,2.30
2023-04-03T22:40:56.690Z,2.00
2023-04-03T22:43:23.429Z,2.25
2023-04-03T22:45:50.232Z,2.31
2023-04-03T22:48:17.558Z,2.57
2023-04-03T22:50:44.562Z,2.47
2023-04-03T22:53:11.253Z,2.17
2023-04-03T22:55:37.913Z,1.77
2023-04-03T22:58:05.160Z,1.93
2023-04-03T23:00:32.462Z,1.68
2023-04-03T23:02:59.614Z,1.92
2023-04-03T23:05:26.335Z,1.80
2023-04-03T23:07:52.979Z,1.94
2023-04-03T23:10:20.597Z,1.53
2023-04-03T23:12:47.260Z,1.62
2023-04-03T23:15:13.940Z,1.92
2023-04-03T23:17:40.832Z,1.87
2023-04-03T23:20:07.868Z,1.72
2023-04-03T23:22:34.555Z,1.50
2023-04-03T23:25:01.156Z,1.38
2023-04-03T23:27:27.827Z,1.46
2023-04-03T23:29:54.467Z,1.61
2023-04-03T23:32:21.065Z,1.09
2023-04-03T23:34:47.703Z,1.22
2023-04-03T23:37:14.430Z,1.16
2023-04-03T23:39:41.082Z,0.97
2023-04-03T23:42:07.851Z,1.02
2023-04-03T23:44:34.694Z,1.19
2023-04-03T23:47:01.360Z,0.98
2023-04-03T23:49:28.028Z,1.00
2023-04-03T23:51:54.882Z,1.10
2023-04-03T23:54:21.517Z,0.99
2023-04-03T23:56:48.501Z,1.07
2023-04-03T23:59:15.304Z,1.18
